Latest Coastal Weather Observations for Evans Head

IDN60701

Issued at 8:24 pm EDT Saturday 28 March 2015 (issued every 10 minutes, with the page automatically refreshed every 10 minutes)

About coastal observations | Map of coastal stations | Coastal observations for NSW | Marine services | Other Formats
Station Details ID: 058212 Name: EVANS HEAD RAAF BOMBING RANGE AWS Lat: -29.18 Lon: 153.40 Height: 62.5 m
Data from the previous 72 hours. | See also: Recent months at Evans Head
Date/Time
EDT
Temp

°C
Wind Pressure Rain
since 9am
mm
Weather Cloud Vis
km
Sea
Height
m
Swell
Dir
 
Speed
knots
Gust
knots
hPa Trend Height
m
Period
s
Dir
28/08:00pm 23.2 SE 7 10 1020.6 - 0.0 - - - - - - -
28/07:30pm 22.8 SE 8 10 1020.2 - 0.0 - - - - - - -
28/07:00pm 22.4 ESE 8 12 1020.0 - 0.0 - - - - - - -
28/06:30pm 22.5 SE 8 12 1019.7 - 0.0 - - - - - - -
28/06:00pm 22.6 SE 9 12 1019.8 - 0.0 - - - - - - -
28/05:30pm 23.3 SE 9 13 1019.8 - 0.0 - - - - - - -
28/05:00pm 23.9 SE 10 13 1019.7 - 0.0 - - - - - - -
28/04:30pm 24.6 SE 9 14 1019.6 - 0.0 - - - - - - -
28/04:00pm 24.9 SSE 11 15 1019.7 - 0.0 - - - - - - -
28/03:30pm 24.8 SSE 11 14 1019.8 - 0.0 - - - - - - -
28/03:00pm 25.4 SSE 12 15 1019.9 - 0.0 - - - - - - -
28/02:30pm 25.9 SSE 10 14 1020.1 - 0.0 - - - - - - -
28/02:00pm 25.8 SSE 12 16 1020.3 - 0.0 - - - - - - -
28/01:30pm 25.6 SSE 12 16 1020.5 - 0.0 - - - - - - -
28/01:00pm 25.8 S 12 16 1021.0 - 0.0 - - - - - - -
28/12:30pm 25.7 S 11 16 1021.3 - 0.0 - - - - - - -
28/12:00pm 25.3 S 13 17 1021.6 - 0.0 - - - - - - -
28/11:30am 25.4 S 10 16 1021.8 - 0.0 - - - - - - -
28/11:00am 24.5 S 9 15 1021.9 - 0.0 - - - - - - -
28/10:30am 24.0 S 9 13 1021.9 - 0.0 - - - - - - -
28/10:00am 24.0 SSW 8 11 1021.8 - 0.0 - - - - - - -
28/09:30am 23.1 SW 7 9 1021.6 - 0.0 - - - - - - -
28/09:00am 21.8 WSW 5 8 1021.3 - 0.0 - - - - - - -
28/08:30am 20.6 WSW 6 9 1021.1 - 0.0 - - - - - - -
28/08:00am 19.8 WSW 7 9 1020.5 - 0.0 - - - - - - -
28/07:30am 18.8 W 7 9 1020.1 - 0.0 - - - - - - -
28/07:00am 18.5 WSW 8 10 1019.8 - 0.0 - - - - - - -
28/06:30am 18.7 WSW 8 10 1019.4 - 0.0 - - - - - - -
28/06:00am 19.0 WSW 8 10 1019.2 - 0.0 - - - - - - -
28/05:30am 18.6 WSW 7 9 1019.0 - 0.0 - - - - - - -
28/05:00am 19.0 WSW 8 10 1018.7 - 0.0 - - - - - - -
28/04:30am 19.0 WSW 7 11 1018.6 - 0.0 - - - - - - -
28/04:00am 19.0 WSW 7 9 1018.5 - 0.0 - - - - - - -
28/03:30am 19.0 WSW 8 11 1018.5 - 0.0 - - - - - - -
28/03:00am 18.7 W 7 11 1018.6 - 0.0 - - - - - - -
28/02:30am 19.0 WSW 7 10 1018.8 - 0.0 - - - - - - -
28/02:00am 19.4 W 6 9 1018.9 - 0.0 - - - - - - -
28/01:30am 19.4 WSW 7 8 1019.0 - 0.0 - - - - - - -
28/01:00am 19.4 W 7 9 1019.1 - 0.0 - - - - - - -
28/12:30am 19.7 WSW 8 10 1019.2 - 0.0 - - - - - - -
28/12:00am 19.7 WSW 7 10 1019.2 - 0.0 - - - - - - -
 
Date/Time
EDT
Temp

°C
Wind Pressure Rain
since 9am
mm
Weather Cloud Vis
km
Sea
Height
m
Swell
Dir
 
Speed
knots
Gust
knots
hPa Trend Height
m
Period
s
Dir
27/11:30pm 19.9 WSW 7 8 1019.5 - 0.0 - - - - - - -
27/11:00pm 20.1 WSW 7 8 1019.7 - 0.0 - - - - - - -
27/10:30pm 20.4 W 7 9 1019.8 - 0.0 - - - - - - -
27/10:00pm 20.8 WSW 5 6 1019.7 - 0.0 - - - - - - -
27/09:30pm 21.3 WSW 4 5 1019.8 - 0.0 - - - - - - -
27/09:00pm 21.9 WSW 5 9 1019.7 - 0.0 - - - - - - -
27/08:30pm 23.0 S 7 9 1019.3 - 0.0 - - - - - - -
27/08:00pm 22.8 S 8 11 1018.9 - 0.0 - - - - - - -
27/07:30pm 22.7 S 8 13 1018.6 - 0.0 - - - - - - -
27/07:00pm 22.9 S 9 15 1018.3 - 0.0 - - - - - - -
27/06:30pm 23.0 S 9 14 1018.2 - 0.0 - - - - - - -
27/06:00pm 23.1 S 10 17 1018.0 - 0.0 - - - - - - -
27/05:30pm 23.7 S 11 15 1017.9 - 0.0 - - - - - - -
27/05:00pm 24.0 S 11 16 1017.6 - 0.0 - - - - - - -
27/04:30pm 24.4 S 11 16 1017.6 - 0.0 - - - - - - -
27/04:00pm 24.9 S 13 17 1017.6 - 0.0 - - - - - - -
27/03:30pm 24.9 S 13 17 1017.8 - 0.0 - - - - - - -
27/03:00pm 25.1 S 14 18 1018.0 - 0.0 - - - - - - -
27/02:30pm 26.1 S 14 20 1018.2 - 0.0 - - - - - - -
27/02:00pm 25.9 S 14 19 1018.4 - 0.0 - - - - - - -
27/01:30pm 25.1 S 13 19 1018.6 - 0.0 - - - - - - -
27/01:00pm 24.7 S 14 21 1018.9 - 0.0 - - - - - - -
27/12:30pm 24.3 S 15 19 1019.2 - 0.0 - - - - - - -
27/12:00pm 24.4 S 16 23 1019.7 - 0.0 - - - - - - -
27/11:30am 24.4 SSW 17 25 1019.7 - 0.0 - - - - - - -
27/11:22am 24.7 S 15 25 1019.8 - 0.0 - - - - - - -
27/11:00am 24.7 SSW 17 23 1019.8 - 0.0 - - - - - - -
27/10:30am 24.8 S 17 23 1019.6 - 0.0 - - - - - - -
27/10:00am 23.6 S 17 24 1019.4 - 0.0 - - - - - - -
27/09:30am 23.6 S 17 23 1019.1 - 0.0 - - - - - - -
27/09:00am 23.4 SSW 9 15 1018.9 - 0.0 - - - - - - -
27/08:30am 22.3 SSW 10 15 1018.5 - 0.0 - - - - - - -
27/08:00am 22.1 SSW 10 15 1018.2 - 0.0 - - - - - - -
27/07:30am 21.9 SSW 13 19 1017.7 - 0.0 - - - - - - -
27/07:00am 22.4 SSW 9 15 1017.3 - 0.0 - - - - - - -
27/06:30am 22.5 SW 9 14 1016.9 - 0.0 - - - - - - -
27/06:00am 22.3 SW 8 10 1016.6 - 0.0 - - - - - - -
27/05:30am 22.1 SW 6 8 1016.2 - 0.0 - - - - - - -
27/05:00am 22.0 WSW 6 8 1015.9 - 0.0 - - - - - - -
27/04:30am 21.7 SW 6 8 1015.7 - 0.0 - - - - - - -
27/04:00am 22.1 S 5 6 1015.7 - 0.0 - - - - - - -
27/03:30am 22.8 W 3 6 1015.4 - 0.0 - - - - - - -
27/03:00am 22.3 NNW 4 7 1015.4 - 0.0 - - - - - - -
27/02:30am 22.4 NNW 6 9 1015.6 - 0.0 - - - - - - -
27/02:00am 22.5 NNW 7 9 1015.8 - 0.0 - - - - - - -
27/01:30am 22.6 NE 4 7 1016.1 - 0.0 - - - - - - -
27/01:00am 23.2 W 5 6 1015.9 - 0.0 - - - - - - -
27/12:30am 22.7 N 4 7 1016.1 - 0.0 - - - - - - -
27/12:00am 22.4 NW 7 11 1016.1 - 0.0 - - - - - - -
 
Date/Time
EDT
Temp

°C
Wind Pressure Rain
since 9am
mm
Weather Cloud Vis
km
Sea
Height
m
Swell
Dir
 
Speed
knots
Gust
knots
hPa Trend Height
m
Period
s
Dir
26/11:30pm 22.1 NNW 6 10 1016.2 - 0.0 - - - - - - -
26/11:00pm 21.7 NW 5 7 1016.5 - 0.0 - - - - - - -
26/10:30pm 22.1 NNW 7 10 1016.3 - 0.0 - - - - - - -
26/10:00pm 22.4 NNW 5 9 1016.2 - 0.0 - - - - - - -
26/09:30pm 22.8 N 5 9 1016.2 - 0.0 - - - - - - -
26/09:00pm 22.9 NNW 6 9 1015.9 - 0.0 - - - - - - -
26/08:30pm 23.6 N 8 12 1015.8 - 0.0 - - - - - - -
26/08:00pm 24.4 NNW 9 13 1016.0 - 0.0 - - - - - - -
26/07:30pm 24.5 NNE 8 11 1015.3 - 0.0 - - - - - - -
26/07:00pm 25.2 NNE 8 12 1015.3 - 0.0 - - - - - - -
26/06:30pm 25.3 NE 7 11 1014.6 - 0.0 - - - - - - -
26/06:00pm 25.7 NNE 7 10 1014.3 - 0.0 - - - - - - -
26/05:30pm 27.0 ENE 5 8 1013.8 - 0.0 - - - - - - -
26/05:00pm 28.5 NE 6 11 1014.0 - 0.0 - - - - - - -
26/04:30pm 28.6 NE 7 12 1014.1 - 0.0 - - - - - - -
26/04:00pm 28.2 NE 7 15 1014.4 - 0.0 - - - - - - -
26/03:30pm 28.9 NE 8 13 1014.9 - 0.0 - - - - - - -
26/03:00pm 29.3 NE 7 11 1015.1 - 0.0 - - - - - - -
26/02:30pm 28.3 NE 7 10 1015.5 - 0.0 - - - - - - -
26/02:00pm 29.2 NNE 3 6 1016.0 - 0.0 - - - - - - -
26/01:30pm 29.0 NNW 2 5 1016.5 - 0.0 - - - - - - -
26/01:00pm 28.7 ENE 1 4 1017.0 - 0.0 - - - - - - -
26/12:30pm 27.3 E 3 6 1017.5 - 0.0 - - - - - - -
26/12:00pm 28.9 N 1 5 1017.7 - 0.0 - - - - - - -
26/11:30am 27.8 N 2 5 1017.8 - 0.0 - - - - - - -
26/11:00am 26.7 WNW 2 5 1018.2 - 0.0 - - - - - - -
26/10:30am 25.4 WNW 3 5 1018.3 - 0.0 - - - - - - -
26/10:00am 25.0 W 4 7 1018.2 - 0.0 - - - - - - -
26/09:30am 24.1 WNW 4 7 1018.1 - 0.0 - - - - - - -
26/09:00am 22.8 W 6 8 1017.8 - 8.6 - - - - - - -
26/08:30am 22.0 W 5 8 1017.7 - 8.6 - - - - - - -
26/08:00am 21.8 WSW 6 8 1017.3 - 8.6 - - - - - - -
26/07:30am 20.9 WSW 5 8 1017.2 - 8.6 - - - - - - -
26/07:00am 20.5 W 6 8 1017.2 - 8.6 - - - - - - -
26/06:30am 20.4 W 7 9 1016.9 - 8.6 - - - - - - -
26/06:00am 20.5 WSW 6 9 1016.7 - 8.4 - - - - - - -
26/05:30am 20.6 WSW 7 9 1016.4 - 8.4 - - - - - - -
26/05:00am 20.6 WSW 6 9 1016.4 - 8.4 - - - - - - -
26/04:30am 20.7 WSW 7 8 1016.2 - 8.4 - - - - - - -
26/04:00am 20.7 WSW 6 7 1016.1 - 8.4 - - - - - - -
26/03:30am 20.9 W 7 8 1016.1 - 8.4 - - - - - - -
26/03:00am 21.0 WSW 6 9 1016.4 - 8.4 - - - - - - -
26/02:30am 21.4 W 5 7 1016.7 - 8.4 - - - - - - -
26/02:00am 21.3 SW 5 7 1016.8 - 8.4 - - - - - - -
26/01:30am 21.6 WSW 6 9 1016.9 - 8.4 - - - - - - -
26/01:00am 21.8 WSW 7 9 1017.0 - 8.4 - - - - - - -
26/12:30am 22.2 SW 6 7 1017.2 - 8.4 - - - - - - -
26/12:00am 22.5 SW 6 8 1017.4 - 8.4 Recent precip. - - - - - -
 
Date/Time
EDT
Temp

°C
Wind Pressure Rain
since 9am
mm
Weather Cloud Vis
km
Sea
Height
m
Swell
Dir
 
Speed
knots
Gust
knots
hPa Trend Height
m
Period
s
Dir
25/11:30pm 22.8 WSW 5 7 1017.7 - 8.0 - - - - - - -
25/11:00pm 22.7 SW 4 7 1017.5 - 8.0 - - - - - - -
25/10:30pm 22.8 SW 6 8 1017.7 - 6.0 - - - - - - -
25/10:00pm 23.0 S 5 7 1017.4 - 5.0 - - - - - - -
25/09:30pm 22.9 SSW 5 8 1017.4 - 4.2 - - - - - - -
25/09:00pm 22.9 SE 4 9 1017.3 - 3.4 Recent precip. - - - - - -
25/08:30pm 22.9 SE 7 9 1016.7 - 2.8 - - - - - - -

Other Formats:

Comma delimited format used in spreadsheet applications
http://www.bom.gov.au/fwo/IDN60701/IDN60701.94598.axf

JavaScript Object Notation format (JSON) in row-major order
http://www.bom.gov.au/fwo/IDN60701/IDN60701.94598.json